sensor_id;sensor_type;location;lat;lon;timestamp;temperature;humidity
26655;DHT22;14278;50.784;4.630;2023-07-13T00:00:35;17.90;99.90
26655;DHT22;14278;50.784;4.630;2023-07-13T00:03:02;17.90;99.90
26655;DHT22;14278;50.784;4.630;2023-07-13T00:05:28;17.90;99.90
26655;DHT22;14278;50.784;4.630;2023-07-13T00:07:54;17.80;99.90
26655;DHT22;14278;50.784;4.630;2023-07-13T00:10:20;17.90;99.90
26655;DHT22;14278;50.784;4.630;2023-07-13T00:12:47;18.00;99.90
26655;DHT22;14278;50.784;4.630;2023-07-13T00:15:19;17.90;99.90
26655;DHT22;14278;50.784;4.630;2023-07-13T00:17:55;17.90;99.90
26655;DHT22;14278;50.784;4.630;2023-07-13T00:20:22;17.80;99.90
26655;DHT22;14278;50.784;4.630;2023-07-13T00:22:53;17.90;99.90
26655;DHT22;14278;50.784;4.630;2023-07-13T00:25:20;18.00;99.90
26655;DHT22;14278;50.784;4.630;2023-07-13T00:27:47;18.00;99.90
26655;DHT22;14278;50.784;4.630;2023-07-13T00:30:17;17.90;99.90
26655;DHT22;14278;50.784;4.630;2023-07-13T00:32:43;17.80;99.90
26655;DHT22;14278;50.784;4.630;2023-07-13T00:35:09;17.70;99.90
26655;DHT22;14278;50.784;4.630;2023-07-13T00:37:35;17.70;99.90
26655;DHT22;14278;50.784;4.630;2023-07-13T00:40:05;17.70;99.90
26655;DHT22;14278;50.784;4.630;2023-07-13T00:42:31;17.80;99.90
26655;DHT22;14278;50.784;4.630;2023-07-13T00:46:02;17.80;99.90
26655;DHT22;14278;50.784;4.630;2023-07-13T00:47:52;17.70;99.90
26655;DHT22;14278;50.784;4.630;2023-07-13T00:50:20;17.80;99.90
26655;DHT22;14278;50.784;4.630;2023-07-13T00:52:49;17.60;99.90
26655;DHT22;14278;50.784;4.630;2023-07-13T00:55:17;17.80;99.90
26655;DHT22;14278;50.784;4.630;2023-07-13T00:57:44;17.80;99.90
26655;DHT22;14278;50.784;4.630;2023-07-13T01:00:11;17.80;99.90
26655;DHT22;14278;50.784;4.630;2023-07-13T01:02:45;17.70;99.90
26655;DHT22;14278;50.784;4.630;2023-07-13T01:05:15;17.80;99.90
26655;DHT22;14278;50.784;4.630;2023-07-13T01:07:43;17.80;99.90
26655;DHT22;14278;50.784;4.630;2023-07-13T01:10:11;17.60;99.90
26655;DHT22;14278;50.784;4.630;2023-07-13T01:12:37;17.30;99.90
26655;DHT22;14278;50.784;4.630;2023-07-13T01:15:04;17.40;99.90
26655;DHT22;14278;50.784;4.630;2023-07-13T01:17:33;17.30;99.90
26655;DHT22;14278;50.784;4.630;2023-07-13T01:19:59;17.40;99.90
26655;DHT22;14278;50.784;4.630;2023-07-13T01:22:25;17.50;99.90
26655;DHT22;14278;50.784;4.630;2023-07-13T01:24:53;17.50;99.90
26655;DHT22;14278;50.784;4.630;2023-07-13T01:27:24;17.30;99.90
26655;DHT22;14278;50.784;4.630;2023-07-13T01:29:51;17.20;99.90
26655;DHT22;14278;50.784;4.630;2023-07-13T01:32:23;17.10;99.90
26655;DHT22;14278;50.784;4.630;2023-07-13T01:34:53;17.10;99.90
26655;DHT22;14278;50.784;4.630;2023-07-13T01:37:19;17.10;99.90
26655;DHT22;14278;50.784;4.630;2023-07-13T01:39:46;17.20;99.90
26655;DHT22;14278;50.784;4.630;2023-07-13T01:42:13;17.40;99.90
26655;DHT22;14278;50.784;4.630;2023-07-13T01:44:38;17.50;99.90
26655;DHT22;14278;50.784;4.630;2023-07-13T01:47:05;17.60;99.90
26655;DHT22;14278;50.784;4.630;2023-07-13T01:49:30;17.30;99.90
26655;DHT22;14278;50.784;4.630;2023-07-13T01:51:57;17.20;99.90
26655;DHT22;14278;50.784;4.630;2023-07-13T01:54:23;17.10;99.90
26655;DHT22;14278;50.784;4.630;2023-07-13T01:56:48;17.20;99.90
26655;DHT22;14278;50.784;4.630;2023-07-13T01:59:14;17.20;99.90
26655;DHT22;14278;50.784;4.630;2023-07-13T02:01:40;17.20;99.90
26655;DHT22;14278;50.784;4.630;2023-07-13T02:04:06;17.10;99.90
26655;DHT22;14278;50.784;4.630;2023-07-13T02:06:32;17.20;99.90
26655;DHT22;14278;50.784;4.630;2023-07-13T02:08:58;17.00;99.90
26655;DHT22;14278;50.784;4.630;2023-07-13T02:11:24;17.10;99.90
26655;DHT22;14278;50.784;4.630;2023-07-13T02:13:51;17.10;99.90
26655;DHT22;14278;50.784;4.630;2023-07-13T02:16:17;17.00;99.90
26655;DHT22;14278;50.784;4.630;2023-07-13T02:18:43;17.00;99.90
26655;DHT22;14278;50.784;4.630;2023-07-13T02:21:09;16.90;99.90
26655;DHT22;14278;50.784;4.630;2023-07-13T02:23:35;16.90;99.90
26655;DHT22;14278;50.784;4.630;2023-07-13T02:26:03;17.00;99.90
26655;DHT22;14278;50.784;4.630;2023-07-13T02:28:29;17.00;99.90
26655;DHT22;14278;50.784;4.630;2023-07-13T02:31:05;17.00;99.90
26655;DHT22;14278;50.784;4.630;2023-07-13T02:33:31;17.00;99.90
26655;DHT22;14278;50.784;4.630;2023-07-13T02:35:57;16.90;99.90
26655;DHT22;14278;50.784;4.630;2023-07-13T02:38:22;16.90;99.90
26655;DHT22;14278;50.784;4.630;2023-07-13T02:40:48;16.80;99.90
26655;DHT22;14278;50.784;4.630;2023-07-13T02:43:14;16.90;99.90
26655;DHT22;14278;50.784;4.630;2023-07-13T02:45:44;16.90;99.90
26655;DHT22;14278;50.784;4.630;2023-07-13T02:48:09;16.90;99.90
26655;DHT22;14278;50.784;4.630;2023-07-13T02:50:35;16.90;99.90
26655;DHT22;14278;50.784;4.630;2023-07-13T02:53:01;16.90;99.90
26655;DHT22;14278;50.784;4.630;2023-07-13T02:55:27;17.20;99.90
26655;DHT22;14278;50.784;4.630;2023-07-13T02:57:53;17.00;99.90
26655;DHT22;14278;50.784;4.630;2023-07-13T03:00:19;16.80;99.90
26655;DHT22;14278;50.784;4.630;2023-07-13T03:02:45;16.70;99.90
26655;DHT22;14278;50.784;4.630;2023-07-13T03:05:11;16.70;99.90
26655;DHT22;14278;50.784;4.630;2023-07-13T03:07:38;16.40;99.90
26655;DHT22;14278;50.784;4.630;2023-07-13T03:10:05;16.70;99.90
26655;DHT22;14278;50.784;4.630;2023-07-13T03:12:32;16.50;99.90
26655;DHT22;14278;50.784;4.630;2023-07-13T03:14:58;16.50;99.90
26655;DHT22;14278;50.784;4.630;2023-07-13T03:17:24;16.50;99.90
26655;DHT22;14278;50.784;4.630;2023-07-13T03:19:50;16.50;99.90
26655;DHT22;14278;50.784;4.630;2023-07-13T03:22:17;16.60;99.90
26655;DHT22;14278;50.784;4.630;2023-07-13T03:24:44;16.60;99.90
26655;DHT22;14278;50.784;4.630;2023-07-13T03:27:10;16.60;99.90
26655;DHT22;14278;50.784;4.630;2023-07-13T03:29:36;16.70;99.90
26655;DHT22;14278;50.784;4.630;2023-07-13T03:32:02;16.60;99.90
26655;DHT22;14278;50.784;4.630;2023-07-13T03:34:30;16.50;99.90
26655;DHT22;14278;50.784;4.630;2023-07-13T03:36:56;16.50;99.90
26655;DHT22;14278;50.784;4.630;2023-07-13T03:39:22;16.60;99.90
26655;DHT22;14278;50.784;4.630;2023-07-13T03:41:49;16.50;99.90
26655;DHT22;14278;50.784;4.630;2023-07-13T03:44:16;16.60;99.90
26655;DHT22;14278;50.784;4.630;2023-07-13T03:46:43;16.50;99.90
26655;DHT22;14278;50.784;4.630;2023-07-13T03:49:09;16.60;99.90
26655;DHT22;14278;50.784;4.630;2023-07-13T03:51:35;16.60;99.90
26655;DHT22;14278;50.784;4.630;2023-07-13T03:54:01;16.50;99.90
26655;DHT22;14278;50.784;4.630;2023-07-13T03:56:28;16.60;99.90
26655;DHT22;14278;50.784;4.630;2023-07-13T03:58:54;16.60;99.90
26655;DHT22;14278;50.784;4.630;2023-07-13T04:01:21;16.60;99.90
26655;DHT22;14278;50.784;4.630;2023-07-13T04:03:47;16.70;99.90
26655;DHT22;14278;50.784;4.630;2023-07-13T04:06:19;16.70;99.90
26655;DHT22;14278;50.784;4.630;2023-07-13T04:08:52;16.60;99.90
26655;DHT22;14278;50.784;4.630;2023-07-13T04:11:22;16.80;99.90
26655;DHT22;14278;50.784;4.630;2023-07-13T04:13:48;16.80;99.90
26655;DHT22;14278;50.784;4.630;2023-07-13T04:16:16;16.90;99.90
26655;DHT22;14278;50.784;4.630;2023-07-13T04:18:43;16.90;99.90
26655;DHT22;14278;50.784;4.630;2023-07-13T04:21:09;16.90;99.90
26655;DHT22;14278;50.784;4.630;2023-07-13T04:23:37;17.10;99.90
26655;DHT22;14278;50.784;4.630;2023-07-13T04:26:03;17.10;99.90
26655;DHT22;14278;50.784;4.630;2023-07-13T04:28:29;17.20;99.90
26655;DHT22;14278;50.784;4.630;2023-07-13T04:30:55;17.20;99.90
26655;DHT22;14278;50.784;4.630;2023-07-13T04:33:21;17.20;99.90
26655;DHT22;14278;50.784;4.630;2023-07-13T04:35:51;17.30;99.90
26655;DHT22;14278;50.784;4.630;2023-07-13T04:38:22;17.20;99.90
26655;DHT22;14278;50.784;4.630;2023-07-13T04:40:48;17.40;99.90
26655;DHT22;14278;50.784;4.630;2023-07-13T04:43:14;17.40;99.90
26655;DHT22;14278;50.784;4.630;2023-07-13T04:45:41;17.50;99.90
26655;DHT22;14278;50.784;4.630;2023-07-13T04:48:06;17.60;99.90
26655;DHT22;14278;50.784;4.630;2023-07-13T04:50:32;17.60;99.90
26655;DHT22;14278;50.784;4.630;2023-07-13T04:53:01;17.50;99.90
26655;DHT22;14278;50.784;4.630;2023-07-13T04:55:27;17.50;99.90
26655;DHT22;14278;50.784;4.630;2023-07-13T04:57:56;17.40;99.90
26655;DHT22;14278;50.784;4.630;2023-07-13T05:00:24;17.70;99.90
26655;DHT22;14278;50.784;4.630;2023-07-13T05:02:50;17.80;99.90
26655;DHT22;14278;50.784;4.630;2023-07-13T05:05:17;17.80;99.90
26655;DHT22;14278;50.784;4.630;2023-07-13T05:07:43;17.90;99.90
26655;DHT22;14278;50.784;4.630;2023-07-13T05:10:09;17.80;99.90
26655;DHT22;14278;50.784;4.630;2023-07-13T05:12:35;18.00;99.90
26655;DHT22;14278;50.784;4.630;2023-07-13T05:15:02;18.20;99.90
26655;DHT22;14278;50.784;4.630;2023-07-13T05:17:28;18.20;99.90
26655;DHT22;14278;50.784;4.630;2023-07-13T05:19:54;18.20;99.90
26655;DHT22;14278;50.784;4.630;2023-07-13T05:22:20;18.10;99.90
26655;DHT22;14278;50.784;4.630;2023-07-13T05:24:46;18.70;99.90
26655;DHT22;14278;50.784;4.630;2023-07-13T05:27:12;18.80;99.90
26655;DHT22;14278;50.784;4.630;2023-07-13T05:29:38;18.90;99.90
26655;DHT22;14278;50.784;4.630;2023-07-13T05:32:04;18.90;99.90
26655;DHT22;14278;50.784;4.630;2023-07-13T05:34:30;18.80;99.90
26655;DHT22;14278;50.784;4.630;2023-07-13T05:36:56;18.70;99.90
26655;DHT22;14278;50.784;4.630;2023-07-13T05:39:22;18.90;99.90
26655;DHT22;14278;50.784;4.630;2023-07-13T05:41:48;19.20;99.90
26655;DHT22;14278;50.784;4.630;2023-07-13T05:44:14;19.00;99.90
26655;DHT22;14278;50.784;4.630;2023-07-13T05:46:40;18.90;99.90
26655;DHT22;14278;50.784;4.630;2023-07-13T05:49:07;19.20;99.90
26655;DHT22;14278;50.784;4.630;2023-07-13T05:51:33;19.30;99.90
26655;DHT22;14278;50.784;4.630;2023-07-13T05:53:58;19.40;99.90
26655;DHT22;14278;50.784;4.630;2023-07-13T05:56:25;19.50;99.90
26655;DHT22;14278;50.784;4.630;2023-07-13T05:58:52;19.50;99.90
26655;DHT22;14278;50.784;4.630;2023-07-13T06:01:18;19.50;99.90
26655;DHT22;14278;50.784;4.630;2023-07-13T06:03:46;19.60;99.90
26655;DHT22;14278;50.784;4.630;2023-07-13T06:06:12;19.30;99.90
26655;DHT22;14278;50.784;4.630;2023-07-13T06:08:39;19.20;99.90
26655;DHT22;14278;50.784;4.630;2023-07-13T06:11:13;19.50;99.90
26655;DHT22;14278;50.784;4.630;2023-07-13T06:13:40;19.10;99.90
26655;DHT22;14278;50.784;4.630;2023-07-13T06:16:06;19.10;99.90
26655;DHT22;14278;50.784;4.630;2023-07-13T06:18:33;19.20;99.90
26655;DHT22;14278;50.784;4.630;2023-07-13T06:21:00;19.20;99.90
26655;DHT22;14278;50.784;4.630;2023-07-13T06:23:26;19.00;99.90
26655;DHT22;14278;50.784;4.630;2023-07-13T06:25:52;19.00;99.90
26655;DHT22;14278;50.784;4.630;2023-07-13T06:28:18;19.10;99.90
26655;DHT22;14278;50.784;4.630;2023-07-13T06:30:44;19.20;99.90
26655;DHT22;14278;50.784;4.630;2023-07-13T06:33:10;19.10;99.90
26655;DHT22;14278;50.784;4.630;2023-07-13T06:35:36;19.20;99.90
26655;DHT22;14278;50.784;4.630;2023-07-13T06:38:02;19.50;99.90
26655;DHT22;14278;50.784;4.630;2023-07-13T06:40:28;19.40;99.90
26655;DHT22;14278;50.784;4.630;2023-07-13T06:42:54;19.40;99.90
26655;DHT22;14278;50.784;4.630;2023-07-13T06:45:20;19.60;99.90
26655;DHT22;14278;50.784;4.630;2023-07-13T06:47:46;19.50;99.90
26655;DHT22;14278;50.784;4.630;2023-07-13T06:50:12;19.70;99.90
26655;DHT22;14278;50.784;4.630;2023-07-13T06:52:38;20.00;99.90
26655;DHT22;14278;50.784;4.630;2023-07-13T06:55:04;20.00;99.90
26655;DHT22;14278;50.784;4.630;2023-07-13T06:57:30;20.10;99.90
26655;DHT22;14278;50.784;4.630;2023-07-13T06:59:56;20.50;99.90
26655;DHT22;14278;50.784;4.630;2023-07-13T07:02:23;20.30;99.90
26655;DHT22;14278;50.784;4.630;2023-07-13T07:04:49;20.40;99.90
26655;DHT22;14278;50.784;4.630;2023-07-13T07:07:15;20.60;99.90
26655;DHT22;14278;50.784;4.630;2023-07-13T07:09:41;20.60;99.90
26655;DHT22;14278;50.784;4.630;2023-07-13T07:12:07;20.60;99.90
26655;DHT22;14278;50.784;4.630;2023-07-13T07:14:33;20.80;99.90
26655;DHT22;14278;50.784;4.630;2023-07-13T07:17:00;21.00;99.90
26655;DHT22;14278;50.784;4.630;2023-07-13T07:19:27;21.00;99.90
26655;DHT22;14278;50.784;4.630;2023-07-13T07:21:53;20.90;99.90
26655;DHT22;14278;50.784;4.630;2023-07-13T07:24:19;21.00;99.90
26655;DHT22;14278;50.784;4.630;2023-07-13T07:26:45;20.70;99.90
26655;DHT22;14278;50.784;4.630;2023-07-13T07:29:11;21.10;99.90
26655;DHT22;14278;50.784;4.630;2023-07-13T07:31:36;21.10;99.90
26655;DHT22;14278;50.784;4.630;2023-07-13T07:34:03;21.50;99.90
26655;DHT22;14278;50.784;4.630;2023-07-13T07:36:29;21.30;99.90
26655;DHT22;14278;50.784;4.630;2023-07-13T07:38:54;21.40;99.90
26655;DHT22;14278;50.784;4.630;2023-07-13T07:41:20;21.80;99.90
26655;DHT22;14278;50.784;4.630;2023-07-13T07:43:46;21.80;99.90
26655;DHT22;14278;50.784;4.630;2023-07-13T07:46:12;22.10;99.90
26655;DHT22;14278;50.784;4.630;2023-07-13T07:48:38;22.10;99.90
26655;DHT22;14278;50.784;4.630;2023-07-13T07:51:04;21.80;99.90
26655;DHT22;14278;50.784;4.630;2023-07-13T07:53:30;21.70;99.90
26655;DHT22;14278;50.784;4.630;2023-07-13T07:55:56;21.90;99.90
26655;DHT22;14278;50.784;4.630;2023-07-13T07:58:22;22.10;99.90
26655;DHT22;14278;50.784;4.630;2023-07-13T08:00:48;22.10;99.90
26655;DHT22;14278;50.784;4.630;2023-07-13T08:03:13;22.20;99.90
26655;DHT22;14278;50.784;4.630;2023-07-13T08:05:39;22.30;99.90
26655;DHT22;14278;50.784;4.630;2023-07-13T08:08:06;22.00;99.90
26655;DHT22;14278;50.784;4.630;2023-07-13T08:10:35;21.80;99.90
26655;DHT22;14278;50.784;4.630;2023-07-13T08:13:01;21.90;99.90
26655;DHT22;14278;50.784;4.630;2023-07-13T08:15:28;22.00;99.90
26655;DHT22;14278;50.784;4.630;2023-07-13T08:17:53;22.10;99.90
26655;DHT22;14278;50.784;4.630;2023-07-13T08:20:19;22.60;99.90
26655;DHT22;14278;50.784;4.630;2023-07-13T08:22:45;23.40;99.90
26655;DHT22;14278;50.784;4.630;2023-07-13T08:25:11;24.30;99.90
26655;DHT22;14278;50.784;4.630;2023-07-13T08:27:37;24.70;99.90
26655;DHT22;14278;50.784;4.630;2023-07-13T08:30:03;25.10;99.90
26655;DHT22;14278;50.784;4.630;2023-07-13T08:32:31;25.60;99.90
26655;DHT22;14278;50.784;4.630;2023-07-13T08:34:57;25.90;99.90
26655;DHT22;14278;50.784;4.630;2023-07-13T08:37:23;27.70;99.90
26655;DHT22;14278;50.784;4.630;2023-07-13T08:39:49;29.70;99.90
26655;DHT22;14278;50.784;4.630;2023-07-13T08:47:46;30.40;99.90
26655;DHT22;14278;50.784;4.630;2023-07-13T08:50:15;30.10;99.90
26655;DHT22;14278;50.784;4.630;2023-07-13T08:52:44;31.00;99.90
26655;DHT22;14278;50.784;4.630;2023-07-13T08:55:23;29.90;99.90
26655;DHT22;14278;50.784;4.630;2023-07-13T08:58:04;29.40;99.90
26655;DHT22;14278;50.784;4.630;2023-07-13T09:00:49;28.70;99.90
26655;DHT22;14278;50.784;4.630;2023-07-13T09:03:25;28.20;99.90
26655;DHT22;14278;50.784;4.630;2023-07-13T09:05:57;28.00;99.90
26655;DHT22;14278;50.784;4.630;2023-07-13T09:08:35;28.70;99.90
26655;DHT22;14278;50.784;4.630;2023-07-13T09:16:26;28.60;99.90
26655;DHT22;14278;50.784;4.630;2023-07-13T09:18:56;28.50;99.90
26655;DHT22;14278;50.784;4.630;2023-07-13T09:21:32;29.80;99.90
26655;DHT22;14278;50.784;4.630;2023-07-13T09:24:17;30.40;99.90
26655;DHT22;14278;50.784;4.630;2023-07-13T09:26:47;30.30;99.90
26655;DHT22;14278;50.784;4.630;2023-07-13T09:29:28;30.40;99.90
26655;DHT22;14278;50.784;4.630;2023-07-13T09:31:57;28.70;99.90
26655;DHT22;14278;50.784;4.630;2023-07-13T09:34:25;27.80;99.90
26655;DHT22;14278;50.784;4.630;2023-07-13T09:36:51;26.50;99.90
26655;DHT22;14278;50.784;4.630;2023-07-13T09:39:30;25.70;99.90
26655;DHT22;14278;50.784;4.630;2023-07-13T09:42:14;25.50;99.90
26655;DHT22;14278;50.784;4.630;2023-07-13T09:45:00;25.70;99.90
26655;DHT22;14278;50.784;4.630;2023-07-13T09:47:32;26.00;99.90
26655;DHT22;14278;50.784;4.630;2023-07-13T09:50:07;26.70;99.90
26655;DHT22;14278;50.784;4.630;2023-07-13T09:52:48;26.30;99.90
26655;DHT22;14278;50.784;4.630;2023-07-13T09:57:49;27.20;99.90
26655;DHT22;14278;50.784;4.630;2023-07-13T10:00:27;26.30;99.90
26655;DHT22;14278;50.784;4.630;2023-07-13T10:03:23;25.40;99.90
26655;DHT22;14278;50.784;4.630;2023-07-13T10:05:49;25.40;99.90
26655;DHT22;14278;50.784;4.630;2023-07-13T10:08:25;25.10;99.90
26655;DHT22;14278;50.784;4.630;2023-07-13T10:10:58;25.60;99.90
26655;DHT22;14278;50.784;4.630;2023-07-13T10:13:29;26.40;99.90
26655;DHT22;14278;50.784;4.630;2023-07-13T10:15:57;26.80;99.90
26655;DHT22;14278;50.784;4.630;2023-07-13T10:18:25;26.40;99.90
26655;DHT22;14278;50.784;4.630;2023-07-13T10:21:08;25.60;99.90
26655;DHT22;14278;50.784;4.630;2023-07-13T10:23:36;25.80;99.90
26655;DHT22;14278;50.784;4.630;2023-07-13T10:26:02;26.60;99.90
26655;DHT22;14278;50.784;4.630;2023-07-13T10:28:35;27.00;99.90
26655;DHT22;14278;50.784;4.630;2023-07-13T10:31:08;27.70;99.90
26655;DHT22;14278;50.784;4.630;2023-07-13T10:33:37;28.70;99.90
26655;DHT22;14278;50.784;4.630;2023-07-13T10:39:29;28.60;99.90
26655;DHT22;14278;50.784;4.630;2023-07-13T10:41:59;28.50;99.90
26655;DHT22;14278;50.784;4.630;2023-07-13T10:44:28;28.20;99.90
26655;DHT22;14278;50.784;4.630;2023-07-13T10:47:00;28.60;99.90
26655;DHT22;14278;50.784;4.630;2023-07-13T10:49:28;28.60;99.90
26655;DHT22;14278;50.784;4.630;2023-07-13T10:51:55;28.90;99.90
26655;DHT22;14278;50.784;4.630;2023-07-13T10:57:16;29.70;99.90
26655;DHT22;14278;50.784;4.630;2023-07-13T10:59:46;29.00;99.90
26655;DHT22;14278;50.784;4.630;2023-07-13T11:02:27;28.30;99.90
26655;DHT22;14278;50.784;4.630;2023-07-13T11:04:55;27.60;99.90
26655;DHT22;14278;50.784;4.630;2023-07-13T11:07:25;27.10;99.90
26655;DHT22;14278;50.784;4.630;2023-07-13T11:09:55;27.90;99.90
26655;DHT22;14278;50.784;4.630;2023-07-13T11:17:35;30.10;99.90
26655;DHT22;14278;50.784;4.630;2023-07-13T11:22:52;28.20;99.90
26655;DHT22;14278;50.784;4.630;2023-07-13T11:25:31;28.00;99.90
26655;DHT22;14278;50.784;4.630;2023-07-13T11:28:11;27.60;99.90
26655;DHT22;14278;50.784;4.630;2023-07-13T11:33:22;27.40;99.90
26655;DHT22;14278;50.784;4.630;2023-07-13T11:35:58;27.40;99.90
26655;DHT22;14278;50.784;4.630;2023-07-13T11:38:40;28.00;99.90
26655;DHT22;14278;50.784;4.630;2023-07-13T11:41:17;29.00;99.90
26655;DHT22;14278;50.784;4.630;2023-07-13T11:43:44;30.00;99.90
26655;DHT22;14278;50.784;4.630;2023-07-13T11:46:25;30.70;99.90
26655;DHT22;14278;50.784;4.630;2023-07-13T11:48:52;30.70;99.90
26655;DHT22;14278;50.784;4.630;2023-07-13T11:51:26;30.10;99.90
26655;DHT22;14278;50.784;4.630;2023-07-13T11:53:54;29.80;99.90
26655;DHT22;14278;50.784;4.630;2023-07-13T11:56:22;28.80;99.90
26655;DHT22;14278;50.784;4.630;2023-07-13T11:58:50;28.50;99.90
26655;DHT22;14278;50.784;4.630;2023-07-13T12:01:27;28.30;99.90
26655;DHT22;14278;50.784;4.630;2023-07-13T12:03:58;27.70;99.90
26655;DHT22;14278;50.784;4.630;2023-07-13T12:06:29;27.40;99.90
26655;DHT22;14278;50.784;4.630;2023-07-13T12:09:00;27.00;99.90
26655;DHT22;14278;50.784;4.630;2023-07-13T12:11:27;26.50;99.90
26655;DHT22;14278;50.784;4.630;2023-07-13T12:13:53;26.40;99.90
26655;DHT22;14278;50.784;4.630;2023-07-13T12:16:29;26.50;99.90
26655;DHT22;14278;50.784;4.630;2023-07-13T12:18:57;26.10;99.90
26655;DHT22;14278;50.784;4.630;2023-07-13T12:21:34;26.10;99.90
26655;DHT22;14278;50.784;4.630;2023-07-13T12:24:01;25.40;99.90
26655;DHT22;14278;50.784;4.630;2023-07-13T12:26:30;25.30;99.90
26655;DHT22;14278;50.784;4.630;2023-07-13T12:28:57;25.60;99.90
26655;DHT22;14278;50.784;4.630;2023-07-13T12:31:42;25.60;99.90
26655;DHT22;14278;50.784;4.630;2023-07-13T12:34:20;25.70;99.90
26655;DHT22;14278;50.784;4.630;2023-07-13T12:39:45;26.00;99.90
26655;DHT22;14278;50.784;4.630;2023-07-13T12:42:29;26.40;99.90
26655;DHT22;14278;50.784;4.630;2023-07-13T12:45:13;25.80;99.90
26655;DHT22;14278;50.784;4.630;2023-07-13T12:47:42;25.80;99.90
26655;DHT22;14278;50.784;4.630;2023-07-13T12:50:15;26.00;99.90
26655;DHT22;14278;50.784;4.630;2023-07-13T12:52:43;25.90;99.90
26655;DHT22;14278;50.784;4.630;2023-07-13T12:55:16;25.80;99.90
26655;DHT22;14278;50.784;4.630;2023-07-13T12:57:51;25.50;99.90
26655;DHT22;14278;50.784;4.630;2023-07-13T13:00:36;25.00;99.90
26655;DHT22;14278;50.784;4.630;2023-07-13T13:03:21;25.00;99.90
26655;DHT22;14278;50.784;4.630;2023-07-13T13:05:47;25.10;99.90
26655;DHT22;14278;50.784;4.630;2023-07-13T13:08:13;25.00;99.90
26655;DHT22;14278;50.784;4.630;2023-07-13T13:10:39;24.90;99.90
26655;DHT22;14278;50.784;4.630;2023-07-13T13:13:05;25.00;99.90
26655;DHT22;14278;50.784;4.630;2023-07-13T13:15:33;25.20;99.90
26655;DHT22;14278;50.784;4.630;2023-07-13T13:17:59;24.80;99.90
26655;DHT22;14278;50.784;4.630;2023-07-13T13:20:25;24.00;99.90
26655;DHT22;14278;50.784;4.630;2023-07-13T13:22:54;23.80;99.90
26655;DHT22;14278;50.784;4.630;2023-07-13T13:25:20;23.50;99.90
26655;DHT22;14278;50.784;4.630;2023-07-13T13:27:47;23.90;99.90
26655;DHT22;14278;50.784;4.630;2023-07-13T13:30:16;24.60;99.90
26655;DHT22;14278;50.784;4.630;2023-07-13T13:32:45;24.50;99.90
26655;DHT22;14278;50.784;4.630;2023-07-13T13:35:17;24.30;99.90
26655;DHT22;14278;50.784;4.630;2023-07-13T13:37:43;24.50;99.90
26655;DHT22;14278;50.784;4.630;2023-07-13T13:40:21;24.80;99.90
26655;DHT22;14278;50.784;4.630;2023-07-13T13:42:48;25.50;99.90
26655;DHT22;14278;50.784;4.630;2023-07-13T13:45:14;25.30;99.90
26655;DHT22;14278;50.784;4.630;2023-07-13T13:47:44;25.50;99.90
26655;DHT22;14278;50.784;4.630;2023-07-13T13:50:16;25.10;99.90
26655;DHT22;14278;50.784;4.630;2023-07-13T13:52:43;25.30;99.90
26655;DHT22;14278;50.784;4.630;2023-07-13T13:57:39;25.50;99.90
26655;DHT22;14278;50.784;4.630;2023-07-13T14:00:05;25.60;99.90
26655;DHT22;14278;50.784;4.630;2023-07-13T14:02:31;26.10;99.90
26655;DHT22;14278;50.784;4.630;2023-07-13T14:04:59;26.30;99.90
26655;DHT22;14278;50.784;4.630;2023-07-13T14:07:26;25.30;99.90
26655;DHT22;14278;50.784;4.630;2023-07-13T14:09:57;25.70;99.90
26655;DHT22;14278;50.784;4.630;2023-07-13T14:12:23;26.10;99.90
26655;DHT22;14278;50.784;4.630;2023-07-13T14:14:56;26.30;99.90
26655;DHT22;14278;50.784;4.630;2023-07-13T14:17:25;26.20;99.90
26655;DHT22;14278;50.784;4.630;2023-07-13T14:19:53;25.90;99.90
26655;DHT22;14278;50.784;4.630;2023-07-13T14:22:23;25.80;99.90
26655;DHT22;14278;50.784;4.630;2023-07-13T14:24:54;25.70;99.90
26655;DHT22;14278;50.784;4.630;2023-07-13T14:27:21;25.90;99.90
26655;DHT22;14278;50.784;4.630;2023-07-13T14:29:47;25.40;99.90
26655;DHT22;14278;50.784;4.630;2023-07-13T14:32:16;25.50;99.90
26655;DHT22;14278;50.784;4.630;2023-07-13T14:34:42;25.20;99.90
26655;DHT22;14278;50.784;4.630;2023-07-13T14:37:13;25.60;99.90
26655;DHT22;14278;50.784;4.630;2023-07-13T14:39:40;25.70;99.90
26655;DHT22;14278;50.784;4.630;2023-07-13T14:42:09;25.80;99.90
26655;DHT22;14278;50.784;4.630;2023-07-13T14:44:35;25.90;99.90
26655;DHT22;14278;50.784;4.630;2023-07-13T14:47:03;25.50;99.90
26655;DHT22;14278;50.784;4.630;2023-07-13T14:49:31;25.30;99.90
26655;DHT22;14278;50.784;4.630;2023-07-13T14:52:08;24.80;99.90
26655;DHT22;14278;50.784;4.630;2023-07-13T14:54:36;24.30;99.90
26655;DHT22;14278;50.784;4.630;2023-07-13T14:57:10;24.10;99.90
26655;DHT22;14278;50.784;4.630;2023-07-13T14:59:36;24.10;99.90
26655;DHT22;14278;50.784;4.630;2023-07-13T15:02:02;24.00;99.90
26655;DHT22;14278;50.784;4.630;2023-07-13T15:04:29;24.00;99.90
26655;DHT22;14278;50.784;4.630;2023-07-13T15:07:00;24.10;99.90
26655;DHT22;14278;50.784;4.630;2023-07-13T15:09:27;23.90;99.90
26655;DHT22;14278;50.784;4.630;2023-07-13T15:11:55;23.80;99.90
26655;DHT22;14278;50.784;4.630;2023-07-13T15:14:21;24.20;99.90
26655;DHT22;14278;50.784;4.630;2023-07-13T15:16:49;24.20;99.90
26655;DHT22;14278;50.784;4.630;2023-07-13T15:19:16;24.10;99.90
26655;DHT22;14278;50.784;4.630;2023-07-13T15:21:43;24.20;99.90
26655;DHT22;14278;50.784;4.630;2023-07-13T15:24:11;24.60;99.90
26655;DHT22;14278;50.784;4.630;2023-07-13T15:26:37;24.20;99.90
26655;DHT22;14278;50.784;4.630;2023-07-13T15:29:04;24.30;99.90
26655;DHT22;14278;50.784;4.630;2023-07-13T15:31:30;24.40;99.90
26655;DHT22;14278;50.784;4.630;2023-07-13T15:33:59;24.20;99.90
26655;DHT22;14278;50.784;4.630;2023-07-13T15:36:26;24.20;99.90
26655;DHT22;14278;50.784;4.630;2023-07-13T15:38:54;24.10;99.90
26655;DHT22;14278;50.784;4.630;2023-07-13T15:41:27;23.90;99.90
26655;DHT22;14278;50.784;4.630;2023-07-13T15:43:56;23.70;99.90
26655;DHT22;14278;50.784;4.630;2023-07-13T15:46:24;23.40;99.90
26655;DHT22;14278;50.784;4.630;2023-07-13T15:48:53;23.50;99.90
26655;DHT22;14278;50.784;4.630;2023-07-13T15:51:30;23.70;99.90
26655;DHT22;14278;50.784;4.630;2023-07-13T15:53:59;24.00;99.90
26655;DHT22;14278;50.784;4.630;2023-07-13T15:56:27;24.20;99.90
26655;DHT22;14278;50.784;4.630;2023-07-13T15:58:54;24.80;99.90
26655;DHT22;14278;50.784;4.630;2023-07-13T16:01:22;25.10;99.90
26655;DHT22;14278;50.784;4.630;2023-07-13T16:03:49;24.80;99.90
26655;DHT22;14278;50.784;4.630;2023-07-13T16:06:24;24.90;99.90
26655;DHT22;14278;50.784;4.630;2023-07-13T16:08:51;25.10;99.90
26655;DHT22;14278;50.784;4.630;2023-07-13T16:11:31;25.20;99.90
26655;DHT22;14278;50.784;4.630;2023-07-13T16:13:59;25.00;99.90